Dousman, WI (53118)

4:56 PM CST on February 05, 2016 (GMT -0600)
Opengate | | Change Station
CLOSE
Current Station
Personal Weather Station
Location: Oconomowoc, WI
Elevation: 892 ft
Nearby Weather Stations

Elev 892 ft 43.02 °N, 88.45 °W | Updated 12 seconds ago

Mostly Cloudy
Mostly Cloudy
30.4 °F
Feels Like 30 °F
N
1.8
Wind Variable Wind from SSE
Gusts 2.5 mph

Today
High -- | Low -- °F
--% Chance of Precip.
Yesterday
High -- | Low -- °F
Precip. -- in
Pressure 30.34 in
Visibility 10.0 miles
Clouds Clear
Windchill 30 °F
Dew Point 4 °F
Humidity 32%
Rainfall 0.00 in
Snow Depth Not available.
7:04 AM 5:11 PM
Waning Crescent, 9% visible
METAR KUES 052245Z 28006KT 10SM SKC M03/M10 A3034
Pressure 30.34 in
Visibility 10.0 miles
Clouds Clear
Windchill 30 °F
Dew Point 4 °F
Humidity 32%
Rainfall 0.00 in
Snow Depth Not available.
7:04 AM 5:11 PM
Waning Crescent, 9% visible
METAR KUES 052245Z 28006KT 10SM SKC M03/M10 A3034

10-Day Weather Forecast

Almanac

Astronomy

Feb. 05, 2016 Rise Set
Actual Time
Civil Twilight
Nautical Twilight
Astronomical Twilight
Moon
Length of Visible Light
Length of Day
Tomorrow will be .
, % of the Moon is Illuminated

Today's Extremes

State Highs State Lows

Community

WunderPhotos

Upload Photos

1,890,875 photos uploaded!

WunderBlog® & News

Nearby

Air Quality

  Air Quality AQ Index Pollutant
Not available.

Snow Depth

Station Depth Elevation

Earthquake Activity

City Distance Mag. Time & Date
Minimum magnitude displayed is 2.5.

Coastal Water Temperatures

Place Temperature

Stations

Nearby Weather Stations

Station Location Temp. Windchill Dew Point Humidity Wind Precip. Elev Updated Type
                   

Watches & Warnings

There are currently no watches in effect.